sensor_id;sensor_type;location;lat;lon;timestamp;P1;durP1;ratioP1;P2;durP2;ratioP2
29320;SDS011;16323;51.130;6.612;2022-12-26T00:01:38;2.03;;;0.90;;
29320;SDS011;16323;51.130;6.612;2022-12-26T00:04:06;0.82;;;0.68;;
29320;SDS011;16323;51.130;6.612;2022-12-26T00:06:33;1.10;;;0.75;;
29320;SDS011;16323;51.130;6.612;2022-12-26T00:09:01;1.95;;;1.13;;
29320;SDS011;16323;51.130;6.612;2022-12-26T00:11:30;1.73;;;0.90;;
29320;SDS011;16323;51.130;6.612;2022-12-26T00:13:59;1.20;;;0.80;;
29320;SDS011;16323;51.130;6.612;2022-12-26T00:16:28;1.33;;;0.80;;
29320;SDS011;16323;51.130;6.612;2022-12-26T00:18:54;0.93;;;0.70;;
29320;SDS011;16323;51.130;6.612;2022-12-26T00:21:21;0.80;;;0.70;;
29320;SDS011;16323;51.130;6.612;2022-12-26T00:23:51;1.15;;;0.80;;
29320;SDS011;16323;51.130;6.612;2022-12-26T00:26:19;1.85;;;0.85;;
29320;SDS011;16323;51.130;6.612;2022-12-26T00:28:47;1.02;;;0.90;;
29320;SDS011;16323;51.130;6.612;2022-12-26T00:31:16;1.15;;;0.73;;
29320;SDS011;16323;51.130;6.612;2022-12-26T00:33:44;0.90;;;0.70;;
29320;SDS011;16323;51.130;6.612;2022-12-26T00:38:43;1.15;;;0.70;;
29320;SDS011;16323;51.130;6.612;2022-12-26T00:41:10;2.08;;;0.90;;
29320;SDS011;16323;51.130;6.612;2022-12-26T00:43:38;1.42;;;0.70;;
29320;SDS011;16323;51.130;6.612;2022-12-26T00:46:05;1.00;;;0.80;;
29320;SDS011;16323;51.130;6.612;2022-12-26T00:48:34;1.35;;;0.70;;
29320;SDS011;16323;51.130;6.612;2022-12-26T00:51:01;2.70;;;0.73;;
29320;SDS011;16323;51.130;6.612;2022-12-26T00:53:28;1.23;;;0.75;;
29320;SDS011;16323;51.130;6.612;2022-12-26T00:55:55;1.05;;;0.70;;
29320;SDS011;16323;51.130;6.612;2022-12-26T00:58:22;1.25;;;0.70;;
29320;SDS011;16323;51.130;6.612;2022-12-26T01:00:49;3.22;;;0.73;;
29320;SDS011;16323;51.130;6.612;2022-12-26T01:03:17;1.05;;;0.68;;
29320;SDS011;16323;51.130;6.612;2022-12-26T01:05:47;2.92;;;0.88;;
29320;SDS011;16323;51.130;6.612;2022-12-26T01:08:15;1.05;;;0.85;;
29320;SDS011;16323;51.130;6.612;2022-12-26T01:10:43;1.15;;;1.00;;
29320;SDS011;16323;51.130;6.612;2022-12-26T01:13:11;1.70;;;0.80;;
29320;SDS011;16323;51.130;6.612;2022-12-26T01:15:38;2.15;;;0.80;;
29320;SDS011;16323;51.130;6.612;2022-12-26T01:18:05;0.93;;;0.70;;
29320;SDS011;16323;51.130;6.612;2022-12-26T01:20:32;0.47;;;0.47;;
29320;SDS011;16323;51.130;6.612;2022-12-26T01:23:00;1.33;;;0.82;;
29320;SDS011;16323;51.130;6.612;2022-12-26T01:25:27;1.77;;;0.80;;
29320;SDS011;16323;51.130;6.612;2022-12-26T01:27:53;0.68;;;0.68;;
29320;SDS011;16323;51.130;6.612;2022-12-26T01:30:20;0.93;;;0.60;;
29320;SDS011;16323;51.130;6.612;2022-12-26T01:32:47;1.50;;;1.00;;
29320;SDS011;16323;51.130;6.612;2022-12-26T01:35:15;0.60;;;0.60;;
29320;SDS011;16323;51.130;6.612;2022-12-26T01:37:42;1.17;;;0.63;;
29320;SDS011;16323;51.130;6.612;2022-12-26T01:40:11;1.73;;;0.93;;
29320;SDS011;16323;51.130;6.612;2022-12-26T01:42:38;1.77;;;1.00;;
29320;SDS011;16323;51.130;6.612;2022-12-26T01:45:08;1.92;;;1.00;;
29320;SDS011;16323;51.130;6.612;2022-12-26T01:47:48;1.05;;;0.80;;
29320;SDS011;16323;51.130;6.612;2022-12-26T01:50:24;0.82;;;0.60;;
29320;SDS011;16323;51.130;6.612;2022-12-26T01:52:58;1.45;;;0.85;;
29320;SDS011;16323;51.130;6.612;2022-12-26T01:55:28;1.02;;;0.80;;
29320;SDS011;16323;51.130;6.612;2022-12-26T01:57:59;0.77;;;0.57;;
29320;SDS011;16323;51.130;6.612;2022-12-26T02:00:29;1.42;;;0.70;;
29320;SDS011;16323;51.130;6.612;2022-12-26T02:02:57;1.20;;;0.63;;
29320;SDS011;16323;51.130;6.612;2022-12-26T02:12:27;0.90;;;0.60;;
29320;SDS011;16323;51.130;6.612;2022-12-26T02:14:55;0.88;;;0.60;;
29320;SDS011;16323;51.130;6.612;2022-12-26T02:17:23;1.17;;;0.85;;
29320;SDS011;16323;51.130;6.612;2022-12-26T02:19:52;1.65;;;0.88;;
29320;SDS011;16323;51.130;6.612;2022-12-26T02:28:55;1.25;;;0.70;;
29320;SDS011;16323;51.130;6.612;2022-12-26T02:31:44;1.10;;;0.73;;
29320;SDS011;16323;51.130;6.612;2022-12-26T02:34:16;1.10;;;0.52;;
29320;SDS011;16323;51.130;6.612;2022-12-26T02:36:52;1.38;;;0.80;;
29320;SDS011;16323;51.130;6.612;2022-12-26T02:39:32;1.45;;;0.75;;
29320;SDS011;16323;51.130;6.612;2022-12-26T02:42:13;0.63;;;0.57;;
29320;SDS011;16323;51.130;6.612;2022-12-26T02:44:51;0.85;;;0.50;;
29320;SDS011;16323;51.130;6.612;2022-12-26T02:47:41;1.20;;;0.95;;
29320;SDS011;16323;51.130;6.612;2022-12-26T02:50:19;0.98;;;0.77;;
29320;SDS011;16323;51.130;6.612;2022-12-26T02:53:14;1.02;;;0.70;;
29320;SDS011;16323;51.130;6.612;2022-12-26T02:56:04;0.57;;;0.50;;
29320;SDS011;16323;51.130;6.612;2022-12-26T02:58:57;1.50;;;0.70;;
29320;SDS011;16323;51.130;6.612;2022-12-26T03:01:47;0.50;;;0.50;;
29320;SDS011;16323;51.130;6.612;2022-12-26T03:04:37;1.00;;;0.70;;
29320;SDS011;16323;51.130;6.612;2022-12-26T03:07:25;0.85;;;0.70;;
29320;SDS011;16323;51.130;6.612;2022-12-26T03:10:14;0.63;;;0.47;;
29320;SDS011;16323;51.130;6.612;2022-12-26T03:13:03;0.73;;;0.63;;
29320;SDS011;16323;51.130;6.612;2022-12-26T03:15:36;2.00;;;0.70;;
29320;SDS011;16323;51.130;6.612;2022-12-26T03:18:19;0.43;;;0.40;;
29320;SDS011;16323;51.130;6.612;2022-12-26T03:20:51;1.08;;;0.60;;
29320;SDS011;16323;51.130;6.612;2022-12-26T03:23:18;0.70;;;0.63;;
29320;SDS011;16323;51.130;6.612;2022-12-26T03:25:48;1.10;;;0.50;;
29320;SDS011;16323;51.130;6.612;2022-12-26T03:28:36;1.05;;;0.73;;
29320;SDS011;16323;51.130;6.612;2022-12-26T03:31:05;1.33;;;0.55;;
29320;SDS011;16323;51.130;6.612;2022-12-26T03:33:34;0.90;;;0.60;;
29320;SDS011;16323;51.130;6.612;2022-12-26T03:36:24;1.15;;;0.55;;
29320;SDS011;16323;51.130;6.612;2022-12-26T03:39:00;0.70;;;0.50;;
29320;SDS011;16323;51.130;6.612;2022-12-26T03:41:40;1.05;;;0.50;;
29320;SDS011;16323;51.130;6.612;2022-12-26T03:44:35;0.80;;;0.60;;
29320;SDS011;16323;51.130;6.612;2022-12-26T03:47:33;1.30;;;0.70;;
29320;SDS011;16323;51.130;6.612;2022-12-26T03:50:24;0.70;;;0.50;;
29320;SDS011;16323;51.130;6.612;2022-12-26T03:53:19;0.60;;;0.60;;
29320;SDS011;16323;51.130;6.612;2022-12-26T03:56:07;1.00;;;0.50;;
29320;SDS011;16323;51.130;6.612;2022-12-26T03:59:09;1.33;;;0.70;;
29320;SDS011;16323;51.130;6.612;2022-12-26T04:01:57;1.00;;;0.55;;
29320;SDS011;16323;51.130;6.612;2022-12-26T04:04:47;0.50;;;0.50;;
29320;SDS011;16323;51.130;6.612;2022-12-26T04:07:35;0.88;;;0.70;;
29320;SDS011;16323;51.130;6.612;2022-12-26T04:10:26;0.70;;;0.50;;
29320;SDS011;16323;51.130;6.612;2022-12-26T04:13:15;1.10;;;0.70;;
29320;SDS011;16323;51.130;6.612;2022-12-26T04:16:03;0.95;;;0.73;;
29320;SDS011;16323;51.130;6.612;2022-12-26T04:18:55;1.63;;;0.68;;
29320;SDS011;16323;51.130;6.612;2022-12-26T04:21:46;1.05;;;0.80;;
29320;SDS011;16323;51.130;6.612;2022-12-26T04:24:39;1.10;;;0.80;;
29320;SDS011;16323;51.130;6.612;2022-12-26T04:27:29;0.85;;;0.80;;
29320;SDS011;16323;51.130;6.612;2022-12-26T04:30:14;0.73;;;0.70;;
29320;SDS011;16323;51.130;6.612;2022-12-26T04:33:00;0.70;;;0.60;;
29320;SDS011;16323;51.130;6.612;2022-12-26T04:35:54;0.77;;;0.68;;
29320;SDS011;16323;51.130;6.612;2022-12-26T04:38:43;0.63;;;0.60;;
29320;SDS011;16323;51.130;6.612;2022-12-26T04:41:31;1.15;;;0.80;;
29320;SDS011;16323;51.130;6.612;2022-12-26T04:44:19;1.00;;;0.73;;
29320;SDS011;16323;51.130;6.612;2022-12-26T04:46:48;1.48;;;0.80;;
29320;SDS011;16323;51.130;6.612;2022-12-26T04:49:17;1.35;;;0.77;;
29320;SDS011;16323;51.130;6.612;2022-12-26T04:52:03;0.70;;;0.60;;
29320;SDS011;16323;51.130;6.612;2022-12-26T04:54:31;1.50;;;0.75;;
29320;SDS011;16323;51.130;6.612;2022-12-26T04:56:58;0.88;;;0.60;;
29320;SDS011;16323;51.130;6.612;2022-12-26T04:59:26;0.82;;;0.68;;
29320;SDS011;16323;51.130;6.612;2022-12-26T05:01:53;0.82;;;0.63;;
29320;SDS011;16323;51.130;6.612;2022-12-26T05:04:37;0.60;;;0.60;;
29320;SDS011;16323;51.130;6.612;2022-12-26T05:07:28;1.35;;;0.73;;
29320;SDS011;16323;51.130;6.612;2022-12-26T05:10:14;1.00;;;0.60;;
29320;SDS011;16323;51.130;6.612;2022-12-26T05:12:43;0.93;;;0.75;;
29320;SDS011;16323;51.130;6.612;2022-12-26T05:18:31;0.70;;;0.60;;
29320;SDS011;16323;51.130;6.612;2022-12-26T05:21:15;2.10;;;0.47;;
29320;SDS011;16323;51.130;6.612;2022-12-26T05:24:01;0.60;;;0.60;;
29320;SDS011;16323;51.130;6.612;2022-12-26T05:26:46;0.80;;;0.50;;
29320;SDS011;16323;51.130;6.612;2022-12-26T05:29:30;1.38;;;0.55;;
29320;SDS011;16323;51.130;6.612;2022-12-26T05:31:57;0.52;;;0.50;;
29320;SDS011;16323;51.130;6.612;2022-12-26T05:34:25;0.52;;;0.45;;
29320;SDS011;16323;51.130;6.612;2022-12-26T05:36:52;1.02;;;0.68;;
29320;SDS011;16323;51.130;6.612;2022-12-26T05:39:21;0.80;;;0.60;;
29320;SDS011;16323;51.130;6.612;2022-12-26T05:41:48;0.50;;;0.40;;
29320;SDS011;16323;51.130;6.612;2022-12-26T05:44:15;0.60;;;0.32;;
29320;SDS011;16323;51.130;6.612;2022-12-26T05:46:42;1.40;;;0.70;;
29320;SDS011;16323;51.130;6.612;2022-12-26T05:49:10;0.38;;;0.38;;
29320;SDS011;16323;51.130;6.612;2022-12-26T05:51:39;0.50;;;0.50;;
29320;SDS011;16323;51.130;6.612;2022-12-26T05:54:06;0.68;;;0.45;;
29320;SDS011;16323;51.130;6.612;2022-12-26T05:56:32;0.40;;;0.40;;
29320;SDS011;16323;51.130;6.612;2022-12-26T05:59:00;0.45;;;0.40;;
29320;SDS011;16323;51.130;6.612;2022-12-26T06:01:27;0.82;;;0.60;;
29320;SDS011;16323;51.130;6.612;2022-12-26T06:03:55;0.60;;;0.45;;
29320;SDS011;16323;51.130;6.612;2022-12-26T06:06:23;0.73;;;0.57;;
29320;SDS011;16323;51.130;6.612;2022-12-26T06:08:53;0.63;;;0.52;;
29320;SDS011;16323;51.130;6.612;2022-12-26T06:11:21;0.70;;;0.50;;
29320;SDS011;16323;51.130;6.612;2022-12-26T06:13:49;3.95;;;0.73;;
29320;SDS011;16323;51.130;6.612;2022-12-26T06:16:16;0.70;;;0.50;;
29320;SDS011;16323;51.130;6.612;2022-12-26T06:18:44;0.55;;;0.45;;
29320;SDS011;16323;51.130;6.612;2022-12-26T06:21:13;0.50;;;0.50;;
29320;SDS011;16323;51.130;6.612;2022-12-26T06:23:41;0.65;;;0.55;;
29320;SDS011;16323;51.130;6.612;2022-12-26T06:26:09;0.70;;;0.50;;
29320;SDS011;16323;51.130;6.612;2022-12-26T06:28:37;0.40;;;0.30;;
29320;SDS011;16323;51.130;6.612;2022-12-26T06:31:05;0.73;;;0.43;;
29320;SDS011;16323;51.130;6.612;2022-12-26T06:33:43;0.40;;;0.35;;
29320;SDS011;16323;51.130;6.612;2022-12-26T06:36:11;0.90;;;0.47;;
29320;SDS011;16323;51.130;6.612;2022-12-26T06:38:40;0.65;;;0.50;;
29320;SDS011;16323;51.130;6.612;2022-12-26T06:41:07;0.45;;;0.40;;
29320;SDS011;16323;51.130;6.612;2022-12-26T06:46:27;1.27;;;0.40;;
29320;SDS011;16323;51.130;6.612;2022-12-26T06:48:54;0.73;;;0.32;;
29320;SDS011;16323;51.130;6.612;2022-12-26T06:51:22;3.38;;;0.50;;
29320;SDS011;16323;51.130;6.612;2022-12-26T06:53:50;1.05;;;0.40;;
29320;SDS011;16323;51.130;6.612;2022-12-26T06:56:19;0.45;;;0.35;;
29320;SDS011;16323;51.130;6.612;2022-12-26T06:58:51;0.70;;;0.32;;
29320;SDS011;16323;51.130;6.612;2022-12-26T07:01:18;0.38;;;0.38;;
29320;SDS011;16323;51.130;6.612;2022-12-26T07:03:45;0.60;;;0.60;;
29320;SDS011;16323;51.130;6.612;2022-12-26T07:06:15;0.73;;;0.60;;
29320;SDS011;16323;51.130;6.612;2022-12-26T07:08:47;0.50;;;0.40;;
29320;SDS011;16323;51.130;6.612;2022-12-26T07:11:20;0.30;;;0.20;;
29320;SDS011;16323;51.130;6.612;2022-12-26T07:16:18;0.30;;;0.30;;
29320;SDS011;16323;51.130;6.612;2022-12-26T07:18:45;1.33;;;0.30;;
29320;SDS011;16323;51.130;6.612;2022-12-26T07:21:13;0.60;;;0.50;;
29320;SDS011;16323;51.130;6.612;2022-12-26T07:23:41;0.32;;;0.25;;
29320;SDS011;16323;51.130;6.612;2022-12-26T07:26:08;1.02;;;0.40;;
29320;SDS011;16323;51.130;6.612;2022-12-26T07:28:36;0.35;;;0.20;;
29320;SDS011;16323;51.130;6.612;2022-12-26T07:31:03;0.40;;;0.40;;
29320;SDS011;16323;51.130;6.612;2022-12-26T07:33:30;0.40;;;0.25;;
29320;SDS011;16323;51.130;6.612;2022-12-26T07:35:58;0.70;;;0.30;;
29320;SDS011;16323;51.130;6.612;2022-12-26T07:38:25;0.30;;;0.30;;
29320;SDS011;16323;51.130;6.612;2022-12-26T07:40:53;0.55;;;0.25;;
29320;SDS011;16323;51.130;6.612;2022-12-26T07:43:20;0.55;;;0.40;;
29320;SDS011;16323;51.130;6.612;2022-12-26T07:45:49;0.20;;;0.20;;
29320;SDS011;16323;51.130;6.612;2022-12-26T07:48:16;0.40;;;0.30;;
29320;SDS011;16323;51.130;6.612;2022-12-26T07:50:43;0.22;;;0.22;;
29320;SDS011;16323;51.130;6.612;2022-12-26T07:53:11;0.80;;;0.30;;
29320;SDS011;16323;51.130;6.612;2022-12-26T07:55:38;0.82;;;0.20;;
29320;SDS011;16323;51.130;6.612;2022-12-26T07:58:05;0.17;;;0.17;;
29320;SDS011;16323;51.130;6.612;2022-12-26T08:00:32;0.65;;;0.28;;
29320;SDS011;16323;51.130;6.612;2022-12-26T08:03:00;0.45;;;0.28;;
29320;SDS011;16323;51.130;6.612;2022-12-26T08:05:26;0.55;;;0.25;;
29320;SDS011;16323;51.130;6.612;2022-12-26T08:07:53;0.43;;;0.13;;
29320;SDS011;16323;51.130;6.612;2022-12-26T08:10:20;0.15;;;0.10;;
29320;SDS011;16323;51.130;6.612;2022-12-26T08:12:47;0.30;;;0.30;;
29320;SDS011;16323;51.130;6.612;2022-12-26T08:15:14;0.57;;;0.20;;
29320;SDS011;16323;51.130;6.612;2022-12-26T08:17:41;0.30;;;0.20;;
29320;SDS011;16323;51.130;6.612;2022-12-26T08:20:09;0.20;;;0.20;;
29320;SDS011;16323;51.130;6.612;2022-12-26T08:22:36;0.32;;;0.20;;
29320;SDS011;16323;51.130;6.612;2022-12-26T08:25:03;0.10;;;0.10;;
29320;SDS011;16323;51.130;6.612;2022-12-26T08:27:30;0.45;;;0.28;;
29320;SDS011;16323;51.130;6.612;2022-12-26T08:29:57;0.60;;;0.20;;
29320;SDS011;16323;51.130;6.612;2022-12-26T08:32:24;1.45;;;0.22;;
29320;SDS011;16323;51.130;6.612;2022-12-26T08:34:51;0.20;;;0.20;;
29320;SDS011;16323;51.130;6.612;2022-12-26T08:37:19;0.10;;;0.10;;
29320;SDS011;16323;51.130;6.612;2022-12-26T08:39:47;0.30;;;0.28;;
29320;SDS011;16323;51.130;6.612;2022-12-26T08:42:16;0.40;;;0.25;;
29320;SDS011;16323;51.130;6.612;2022-12-26T08:44:43;0.20;;;0.20;;
29320;SDS011;16323;51.130;6.612;2022-12-26T08:47:10;0.40;;;0.20;;
29320;SDS011;16323;51.130;6.612;2022-12-26T08:49:37;0.47;;;0.17;;
29320;SDS011;16323;51.130;6.612;2022-12-26T08:52:04;0.63;;;0.20;;
29320;SDS011;16323;51.130;6.612;2022-12-26T08:54:32;0.77;;;0.30;;
29320;SDS011;16323;51.130;6.612;2022-12-26T08:56:59;0.10;;;0.10;;
29320;SDS011;16323;51.130;6.612;2022-12-26T08:59:26;0.28;;;0.20;;
29320;SDS011;16323;51.130;6.612;2022-12-26T09:01:53;0.20;;;0.20;;
29320;SDS011;16323;51.130;6.612;2022-12-26T09:04:19;0.63;;;0.22;;
29320;SDS011;16323;51.130;6.612;2022-12-26T09:06:46;0.30;;;0.20;;
29320;SDS011;16323;51.130;6.612;2022-12-26T09:09:13;0.10;;;0.10;;
29320;SDS011;16323;51.130;6.612;2022-12-26T09:11:42;0.10;;;0.10;;
29320;SDS011;16323;51.130;6.612;2022-12-26T09:14:09;0.30;;;0.22;;
29320;SDS011;16323;51.130;6.612;2022-12-26T09:16:38;0.20;;;0.20;;
29320;SDS011;16323;51.130;6.612;2022-12-26T09:19:08;0.20;;;0.20;;
29320;SDS011;16323;51.130;6.612;2022-12-26T09:21:37;2.08;;;0.32;;
29320;SDS011;16323;51.130;6.612;2022-12-26T09:24:06;0.20;;;0.10;;
29320;SDS011;16323;51.130;6.612;2022-12-26T09:26:35;0.30;;;0.30;;
29320;SDS011;16323;51.130;6.612;2022-12-26T09:29:03;0.10;;;0.10;;
29320;SDS011;16323;51.130;6.612;2022-12-26T09:31:31;0.93;;;0.22;;
29320;SDS011;16323;51.130;6.612;2022-12-26T09:34:00;0.85;;;0.20;;
29320;SDS011;16323;51.130;6.612;2022-12-26T09:36:30;0.20;;;0.10;;
29320;SDS011;16323;51.130;6.612;2022-12-26T09:38:58;0.40;;;0.25;;
29320;SDS011;16323;51.130;6.612;2022-12-26T09:41:31;0.10;;;0.10;;
29320;SDS011;16323;51.130;6.612;2022-12-26T09:44:24;0.13;;;0.13;;
29320;SDS011;16323;51.130;6.612;2022-12-26T09:46:59;1.02;;;0.35;;
29320;SDS011;16323;51.130;6.612;2022-12-26T09:49:34;0.77;;;0.30;;
29320;SDS011;16323;51.130;6.612;2022-12-26T09:52:04;0.20;;;0.20;;
29320;SDS011;16323;51.130;6.612;2022-12-26T09:54:41;0.82;;;0.30;;
29320;SDS011;16323;51.130;6.612;2022-12-26T09:57:14;0.52;;;0.20;;
29320;SDS011;16323;51.130;6.612;2022-12-26T09:59:46;0.68;;;0.20;;
29320;SDS011;16323;51.130;6.612;2022-12-26T10:02:17;0.50;;;0.20;;
29320;SDS011;16323;51.130;6.612;2022-12-26T10:04:47;0.20;;;0.20;;
29320;SDS011;16323;51.130;6.612;2022-12-26T10:07:16;0.20;;;0.10;;
29320;SDS011;16323;51.130;6.612;2022-12-26T10:09:52;0.22;;;0.20;;
29320;SDS011;16323;51.130;6.612;2022-12-26T10:12:36;4.10;;;0.30;;
29320;SDS011;16323;51.130;6.612;2022-12-26T10:15:14;0.10;;;0.10;;
29320;SDS011;16323;51.130;6.612;2022-12-26T10:17:55;0.10;;;0.10;;
29320;SDS011;16323;51.130;6.612;2022-12-26T10:20:30;0.28;;;0.25;;
29320;SDS011;16323;51.130;6.612;2022-12-26T10:23:12;0.40;;;0.28;;
29320;SDS011;16323;51.130;6.612;2022-12-26T10:25:54;0.93;;;0.30;;
29320;SDS011;16323;51.130;6.612;2022-12-26T10:28:27;0.82;;;0.50;;
29320;SDS011;16323;51.130;6.612;2022-12-26T10:30:59;2.53;;;0.35;;
29320;SDS011;16323;51.130;6.612;2022-12-26T10:33:36;0.75;;;0.22;;
29320;SDS011;16323;51.130;6.612;2022-12-26T10:36:11;1.05;;;0.38;;
29320;SDS011;16323;51.130;6.612;2022-12-26T10:38:43;0.30;;;0.28;;
29320;SDS011;16323;51.130;6.612;2022-12-26T10:41:21;0.43;;;0.22;;
29320;SDS011;16323;51.130;6.612;2022-12-26T10:43:50;2.47;;;0.50;;
29320;SDS011;16323;51.130;6.612;2022-12-26T10:49:12;0.20;;;0.20;;
29320;SDS011;16323;51.130;6.612;2022-12-26T10:51:43;0.63;;;0.25;;
29320;SDS011;16323;51.130;6.612;2022-12-26T10:54:11;0.82;;;0.50;;
29320;SDS011;16323;51.130;6.612;2022-12-26T10:56:42;0.22;;;0.22;;
29320;SDS011;16323;51.130;6.612;2022-12-26T10:59:12;0.30;;;0.20;;
29320;SDS011;16323;51.130;6.612;2022-12-26T11:01:43;1.30;;;0.30;;
29320;SDS011;16323;51.130;6.612;2022-12-26T11:04:16;0.90;;;0.40;;
29320;SDS011;16323;51.130;6.612;2022-12-26T11:06:46;0.70;;;0.47;;
29320;SDS011;16323;51.130;6.612;2022-12-26T11:09:37;1.15;;;0.70;;
29320;SDS011;16323;51.130;6.612;2022-12-26T11:12:15;0.55;;;0.40;;
29320;SDS011;16323;51.130;6.612;2022-12-26T11:14:45;0.85;;;0.30;;
29320;SDS011;16323;51.130;6.612;2022-12-26T11:17:23;0.65;;;0.30;;
29320;SDS011;16323;51.130;6.612;2022-12-26T11:20:07;0.32;;;0.30;;
29320;SDS011;16323;51.130;6.612;2022-12-26T11:22:37;0.20;;;0.10;;
29320;SDS011;16323;51.130;6.612;2022-12-26T11:27:48;0.45;;;0.38;;
29320;SDS011;16323;51.130;6.612;2022-12-26T11:30:17;2.55;;;0.40;;
29320;SDS011;16323;51.130;6.612;2022-12-26T11:33:00;0.90;;;0.25;;
29320;SDS011;16323;51.130;6.612;2022-12-26T11:35:31;0.52;;;0.28;;
29320;SDS011;16323;51.130;6.612;2022-12-26T11:38:01;1.08;;;0.47;;
29320;SDS011;16323;51.130;6.612;2022-12-26T11:40:31;0.88;;;0.47;;
29320;SDS011;16323;51.130;6.612;2022-12-26T11:43:02;1.75;;;0.40;;
29320;SDS011;16323;51.130;6.612;2022-12-26T11:45:30;1.02;;;0.50;;
29320;SDS011;16323;51.130;6.612;2022-12-26T11:48:06;0.95;;;0.30;;
29320;SDS011;16323;51.130;6.612;2022-12-26T11:50:43;1.70;;;0.40;;
29320;SDS011;16323;51.130;6.612;2022-12-26T11:53:14;0.65;;;0.17;;
29320;SDS011;16323;51.130;6.612;2022-12-26T11:55:42;0.75;;;0.20;;
29320;SDS011;16323;51.130;6.612;2022-12-26T11:58:14;0.98;;;0.30;;
29320;SDS011;16323;51.130;6.612;2022-12-26T12:01:01;0.90;;;0.40;;
29320;SDS011;16323;51.130;6.612;2022-12-26T12:03:36;0.30;;;0.30;;
29320;SDS011;16323;51.130;6.612;2022-12-26T12:06:11;0.25;;;0.22;;
29320;SDS011;16323;51.130;6.612;2022-12-26T12:08:46;1.95;;;0.30;;
29320;SDS011;16323;51.130;6.612;2022-12-26T12:11:20;0.63;;;0.20;;
29320;SDS011;16323;51.130;6.612;2022-12-26T12:14:02;0.20;;;0.20;;
29320;SDS011;16323;51.130;6.612;2022-12-26T12:16:45;0.30;;;0.20;;
29320;SDS011;16323;51.130;6.612;2022-12-26T12:19:22;3.25;;;0.52;;
29320;SDS011;16323;51.130;6.612;2022-12-26T12:21:58;0.17;;;0.15;;
29320;SDS011;16323;51.130;6.612;2022-12-26T12:24:47;0.68;;;0.38;;
29320;SDS011;16323;51.130;6.612;2022-12-26T12:27:23;1.17;;;0.40;;
29320;SDS011;16323;51.130;6.612;2022-12-26T12:30:04;0.20;;;0.20;;
29320;SDS011;16323;51.130;6.612;2022-12-26T12:32:56;0.98;;;0.43;;
29320;SDS011;16323;51.130;6.612;2022-12-26T12:35:37;1.00;;;0.45;;
29320;SDS011;16323;51.130;6.612;2022-12-26T12:41:09;0.90;;;0.30;;
29320;SDS011;16323;51.130;6.612;2022-12-26T12:44:02;0.30;;;0.30;;
29320;SDS011;16323;51.130;6.612;2022-12-26T12:46:37;2.50;;;0.30;;
29320;SDS011;16323;51.130;6.612;2022-12-26T12:49:25;0.25;;;0.20;;
29320;SDS011;16323;51.130;6.612;2022-12-26T12:52:12;0.20;;;0.20;;
29320;SDS011;16323;51.130;6.612;2022-12-26T12:57:49;0.45;;;0.30;;
29320;SDS011;16323;51.130;6.612;2022-12-26T13:00:20;1.38;;;0.40;;
29320;SDS011;16323;51.130;6.612;2022-12-26T13:02:51;0.88;;;0.32;;
29320;SDS011;16323;51.130;6.612;2022-12-26T13:05:33;1.08;;;0.30;;
29320;SDS011;16323;51.130;6.612;2022-12-26T13:08:09;1.40;;;0.38;;
29320;SDS011;16323;51.130;6.612;2022-12-26T13:10:43;0.47;;;0.32;;
29320;SDS011;16323;51.130;6.612;2022-12-26T13:13:16;1.17;;;0.30;;
29320;SDS011;16323;51.130;6.612;2022-12-26T13:15:50;0.73;;;0.30;;
29320;SDS011;16323;51.130;6.612;2022-12-26T13:18:21;0.28;;;0.20;;
29320;SDS011;16323;51.130;6.612;2022-12-26T13:20:52;0.65;;;0.20;;
29320;SDS011;16323;51.130;6.612;2022-12-26T13:23:26;1.52;;;0.40;;
29320;SDS011;16323;51.130;6.612;2022-12-26T13:26:13;1.92;;;0.40;;
29320;SDS011;16323;51.130;6.612;2022-12-26T13:28:47;0.28;;;0.15;;
29320;SDS011;16323;51.130;6.612;2022-12-26T13:31:19;1.08;;;0.45;;
29320;SDS011;16323;51.130;6.612;2022-12-26T13:33:46;0.68;;;0.30;;
29320;SDS011;16323;51.130;6.612;2022-12-26T13:42:02;0.40;;;0.20;;
29320;SDS011;16323;51.130;6.612;2022-12-26T13:51:40;0.68;;;0.20;;
29320;SDS011;16323;51.130;6.612;2022-12-26T13:54:10;0.77;;;0.40;;
29320;SDS011;16323;51.130;6.612;2022-12-26T14:00:03;1.15;;;0.25;;
29320;SDS011;16323;51.130;6.612;2022-12-26T14:02:47;0.75;;;0.40;;
29320;SDS011;16323;51.130;6.612;2022-12-26T14:05:24;0.65;;;0.35;;
29320;SDS011;16323;51.130;6.612;2022-12-26T14:07:59;0.82;;;0.32;;
29320;SDS011;16323;51.130;6.612;2022-12-26T14:10:35;0.90;;;0.40;;
29320;SDS011;16323;51.130;6.612;2022-12-26T14:13:16;0.65;;;0.28;;
29320;SDS011;16323;51.130;6.612;2022-12-26T14:16:00;1.60;;;0.70;;
29320;SDS011;16323;51.130;6.612;2022-12-26T14:18:35;1.02;;;0.22;;
29320;SDS011;16323;51.130;6.612;2022-12-26T14:21:17;1.63;;;0.32;;
29320;SDS011;16323;51.130;6.612;2022-12-26T14:23:51;0.70;;;0.38;;
29320;SDS011;16323;51.130;6.612;2022-12-26T14:26:27;0.65;;;0.20;;
29320;SDS011;16323;51.130;6.612;2022-12-26T14:29:05;1.52;;;0.40;;
29320;SDS011;16323;51.130;6.612;2022-12-26T14:31:50;0.95;;;0.30;;
29320;SDS011;16323;51.130;6.612;2022-12-26T14:34:33;0.73;;;0.28;;
29320;SDS011;16323;51.130;6.612;2022-12-26T14:37:13;0.63;;;0.38;;
29320;SDS011;16323;51.130;6.612;2022-12-26T14:39:51;0.63;;;0.17;;
29320;SDS011;16323;51.130;6.612;2022-12-26T14:42:28;1.65;;;0.30;;
29320;SDS011;16323;51.130;6.612;2022-12-26T14:51:29;0.88;;;0.50;;
29320;SDS011;16323;51.130;6.612;2022-12-26T14:54:08;0.52;;;0.20;;
29320;SDS011;16323;51.130;6.612;2022-12-26T14:56:59;0.77;;;0.40;;
29320;SDS011;16323;51.130;6.612;2022-12-26T14:59:28;1.35;;;0.50;;
29320;SDS011;16323;51.130;6.612;2022-12-26T15:01:59;1.52;;;0.50;;
29320;SDS011;16323;51.130;6.612;2022-12-26T15:04:56;1.05;;;0.40;;
29320;SDS011;16323;51.130;6.612;2022-12-26T15:07:37;1.10;;;0.60;;
29320;SDS011;16323;51.130;6.612;2022-12-26T15:22:53;1.00;;;0.30;;
29320;SDS011;16323;51.130;6.612;2022-12-26T15:25:56;1.73;;;0.50;;
29320;SDS011;16323;51.130;6.612;2022-12-26T15:31:54;1.42;;;0.40;;
29320;SDS011;16323;51.130;6.612;2022-12-26T15:34:32;0.60;;;0.30;;
29320;SDS011;16323;51.130;6.612;2022-12-26T15:37:08;0.82;;;0.38;;
29320;SDS011;16323;51.130;6.612;2022-12-26T15:39:47;0.95;;;0.43;;
29320;SDS011;16323;51.130;6.612;2022-12-26T15:42:28;1.98;;;0.52;;
29320;SDS011;16323;51.130;6.612;2022-12-26T15:47:54;2.03;;;0.63;;
29320;SDS011;16323;51.130;6.612;2022-12-26T15:50:28;1.52;;;0.50;;
29320;SDS011;16323;51.130;6.612;2022-12-26T15:53:02;1.20;;;0.50;;
29320;SDS011;16323;51.130;6.612;2022-12-26T15:55:41;1.23;;;0.40;;
29320;SDS011;16323;51.130;6.612;2022-12-26T15:58:26;1.55;;;0.40;;
29320;SDS011;16323;51.130;6.612;2022-12-26T16:01:09;1.67;;;0.73;;
29320;SDS011;16323;51.130;6.612;2022-12-26T16:03:38;1.75;;;0.70;;
29320;SDS011;16323;51.130;6.612;2022-12-26T16:06:23;3.55;;;0.65;;
29320;SDS011;16323;51.130;6.612;2022-12-26T16:09:00;1.60;;;0.50;;
29320;SDS011;16323;51.130;6.612;2022-12-26T16:11:49;3.67;;;0.90;;
29320;SDS011;16323;51.130;6.612;2022-12-26T16:14:24;1.88;;;0.60;;
29320;SDS011;16323;51.130;6.612;2022-12-26T16:17:08;1.40;;;0.60;;
29320;SDS011;16323;51.130;6.612;2022-12-26T16:19:43;1.13;;;0.60;;
29320;SDS011;16323;51.130;6.612;2022-12-26T16:22:13;2.13;;;0.52;;
29320;SDS011;16323;51.130;6.612;2022-12-26T16:25:00;2.95;;;0.70;;
29320;SDS011;16323;51.130;6.612;2022-12-26T16:27:29;1.17;;;0.55;;
29320;SDS011;16323;51.130;6.612;2022-12-26T16:29:56;1.60;;;0.43;;
29320;SDS011;16323;51.130;6.612;2022-12-26T16:32:28;1.58;;;0.50;;
29320;SDS011;16323;51.130;6.612;2022-12-26T16:34:59;0.93;;;0.47;;
29320;SDS011;16323;51.130;6.612;2022-12-26T16:37:26;0.82;;;0.30;;
29320;SDS011;16323;51.130;6.612;2022-12-26T16:40:04;3.40;;;0.70;;
29320;SDS011;16323;51.130;6.612;2022-12-26T16:42:33;1.15;;;0.40;;
29320;SDS011;16323;51.130;6.612;2022-12-26T16:45:00;1.38;;;0.65;;
29320;SDS011;16323;51.130;6.612;2022-12-26T16:47:27;1.35;;;0.50;;